Aérodrome :
LOGIN :

S'inscrire | Disclaimer

   EN    FR    IT 

 










Légende :    VFR   VFR Marginal   IFR   IFR Intensif   IFR Très Intensif
Visi : 
Plafond : 
>= 8 km
>= 3000ft
5 à 8 km
1000 à 3000 ft
1500m à 5 km
500 à 1000 ft
800 à 1500m
200 à 500 ft
< 800m
< 200 ft
Symboles :   Orages  Brouillard  Fortes neiges  Fortes précipitations  Vent > 20 kt
SIGMETs :   Divers  Orages  Givrage  Turbulence  Onde Orograph.  Cendres Volcan.






- Altitude de l'aérodrome : 1066 ft


EGOM - RAF Spadeadam

DERNIER METAR :
  • 230850Z 07005KT 9999 BKN013 14/12 Q1017 RMK GRN

METARs EXPIRÉS :
  • 230820Z AUTO 05005KT 9999 OVC007/// 13/12 Q1017
  • 230750Z 05005KT 9999 BKN011 13/13 Q1017 RMK GRN
  • 230720Z AUTO 05005KT 9999 OVC007/// 13/13 Q1016
  • 230650Z AUTO 05003KT 9999 OVC007/// 13/13 Q1016
  • 230620Z AUTO 03007KT 9999 OVC007/// 13/12 Q1016
  • 230550Z AUTO 05005KT 9999 BKN008/// 12/12 Q1015
  • 230520Z AUTO 05005KT 9999 OVC006/// 12/12 Q1015
  • 230450Z AUTO 02004KT 9999 // SCT008/// SCT032/// BKN064/// 12/12 Q1015
  • 230420Z AUTO 36004KT 9999 // OVC001/// 13/13 Q1014

Prévision TAF périmée.



MET'MAP, la Météo Aéronautique d'un coup d'oeil ! - Copyright ORBIFLY Décembre 2007 - Disclaimer

ORBIFLY MET'MAP TEAM :

Programmation & Développement : Alexandra Zaïnal
Sur une idée originale de : Baudouin d'Aumeries
Soutien technique & logistique : Manuel Goepfert
Assistance : Marc-Olivier Méhu




SOURCES & CREDITS :

   NOAA